Portada
METAR-TAF:

METAR-TAF

Aeroports :

Conyac, França

latitud: 45-40N, longitud: 000-19W, altitud: 30 m

Observació

L'informe es va fer fa 28 minuts, a les 18:00 UTC
Vent 6 kt del Nord
Temperatura 17°C
Humitat 72%
Pressió 1021 hPa
Visibilitat 10 km o més
sense núvols per sota de 1500 mi sense presència de cumulonimbus.

METAR: LFBG 191800Z AUTO 01006KT CAVOK 17/12 Q1021

Hora: 20:28 (18:28 UTC)

Pronòstic

L'informe es va fer fa 10 hores i 28 minuts, a les 08:00 UTC
Pronòstic vàlid del 19 a les 09 UTC al 20 a les 09 UTC
Vent 10 kt del Nord/Nord-Est
Visibilitat: 3000 m
Cel ennuvolat a una alçada de 500 ft
boirina
Evolucionant progressivament
l' 19 a les 09 UTC al 19 a les 10 UTC
Visibilitat: 8000 m

TAF: LFBG 190800Z 1909/2009 03010KT 3000 BR BKN005 BECMG 1909/1910 8000 NSW NSC

Observacions i pronòstics meteorològics de més de 4000 aeroports (METAR i TAF).

Les estacions disponibles són els punts grocs i vermells al mapa.

Posi el ratolí al punt desitjat per veure el nom de l'estació.

Feu clic per veure les observacions i els pronòstics meteorològics.

Per canviar el mapa: feu clic els botons verds amb una creu de color negre per apropar; al botó verd amb un guió per allunyar la imatge; o en les fletxes verdes per a mapes adjacents.


METAR-TAF: